sensor_id;sensor_type;location;lat;lon;timestamp;P1;durP1;ratioP1;P2;durP2;ratioP2
12302;SDS011;6214;48.012;7.862;2023-02-01T00:00:27;16.25;;;4.85;;
12302;SDS011;6214;48.012;7.862;2023-02-01T00:02:54;16.55;;;5.15;;
12302;SDS011;6214;48.012;7.862;2023-02-01T00:05:21;15.83;;;4.00;;
12302;SDS011;6214;48.012;7.862;2023-02-01T00:07:48;16.27;;;4.40;;
12302;SDS011;6214;48.012;7.862;2023-02-01T00:10:15;16.13;;;4.20;;
12302;SDS011;6214;48.012;7.862;2023-02-01T00:12:42;16.17;;;4.63;;
12302;SDS011;6214;48.012;7.862;2023-02-01T00:15:09;17.00;;;4.60;;
12302;SDS011;6214;48.012;7.862;2023-02-01T00:17:36;17.42;;;4.57;;
12302;SDS011;6214;48.012;7.862;2023-02-01T00:20:03;16.10;;;4.40;;
12302;SDS011;6214;48.012;7.862;2023-02-01T00:22:30;15.82;;;4.40;;
12302;SDS011;6214;48.012;7.862;2023-02-01T00:24:57;16.23;;;4.03;;
12302;SDS011;6214;48.012;7.862;2023-02-01T00:27:24;15.50;;;4.05;;
12302;SDS011;6214;48.012;7.862;2023-02-01T00:29:51;15.30;;;3.70;;
12302;SDS011;6214;48.012;7.862;2023-02-01T00:32:17;15.73;;;4.25;;
12302;SDS011;6214;48.012;7.862;2023-02-01T00:34:44;16.55;;;4.57;;
12302;SDS011;6214;48.012;7.862;2023-02-01T00:37:11;16.40;;;4.32;;
12302;SDS011;6214;48.012;7.862;2023-02-01T00:39:37;15.37;;;3.67;;
12302;SDS011;6214;48.012;7.862;2023-02-01T00:42:04;15.00;;;3.50;;
12302;SDS011;6214;48.012;7.862;2023-02-01T00:44:31;15.25;;;4.00;;
12302;SDS011;6214;48.012;7.862;2023-02-01T00:47:00;16.92;;;4.00;;
12302;SDS011;6214;48.012;7.862;2023-02-01T00:49:27;15.80;;;3.90;;
12302;SDS011;6214;48.012;7.862;2023-02-01T00:51:55;15.90;;;4.13;;
12302;SDS011;6214;48.012;7.862;2023-02-01T00:54:22;16.80;;;4.38;;
12302;SDS011;6214;48.012;7.862;2023-02-01T00:56:48;16.85;;;4.93;;
12302;SDS011;6214;48.012;7.862;2023-02-01T00:59:15;15.48;;;3.95;;
12302;SDS011;6214;48.012;7.862;2023-02-01T01:01:42;15.27;;;3.70;;
12302;SDS011;6214;48.012;7.862;2023-02-01T01:04:09;15.25;;;3.60;;
12302;SDS011;6214;48.012;7.862;2023-02-01T01:06:36;17.08;;;3.80;;
12302;SDS011;6214;48.012;7.862;2023-02-01T01:09:05;16.02;;;3.90;;
12302;SDS011;6214;48.012;7.862;2023-02-01T01:11:34;16.10;;;3.60;;
12302;SDS011;6214;48.012;7.862;2023-02-01T01:14:03;15.40;;;3.85;;
12302;SDS011;6214;48.012;7.862;2023-02-01T01:16:31;15.20;;;3.42;;
12302;SDS011;6214;48.012;7.862;2023-02-01T01:18:59;15.40;;;3.70;;
12302;SDS011;6214;48.012;7.862;2023-02-01T01:21:27;16.80;;;4.00;;
12302;SDS011;6214;48.012;7.862;2023-02-01T01:23:54;15.90;;;3.80;;
12302;SDS011;6214;48.012;7.862;2023-02-01T01:26:22;16.35;;;3.85;;
12302;SDS011;6214;48.012;7.862;2023-02-01T01:28:51;16.00;;;3.72;;
12302;SDS011;6214;48.012;7.862;2023-02-01T01:31:19;16.50;;;4.00;;
12302;SDS011;6214;48.012;7.862;2023-02-01T01:33:53;16.92;;;4.00;;
12302;SDS011;6214;48.012;7.862;2023-02-01T01:36:21;18.48;;;4.40;;
12302;SDS011;6214;48.012;7.862;2023-02-01T01:38:49;16.35;;;4.25;;
12302;SDS011;6214;48.012;7.862;2023-02-01T01:41:17;15.85;;;4.30;;
12302;SDS011;6214;48.012;7.862;2023-02-01T01:46:23;18.05;;;4.40;;
12302;SDS011;6214;48.012;7.862;2023-02-01T01:48:54;17.40;;;4.65;;
12302;SDS011;6214;48.012;7.862;2023-02-01T01:51:44;16.00;;;3.90;;
12302;SDS011;6214;48.012;7.862;2023-02-01T01:54:21;15.97;;;3.87;;
12302;SDS011;6214;48.012;7.862;2023-02-01T01:56:55;15.70;;;4.00;;
12302;SDS011;6214;48.012;7.862;2023-02-01T01:59:25;15.95;;;4.03;;
12302;SDS011;6214;48.012;7.862;2023-02-01T02:01:55;17.73;;;4.00;;
12302;SDS011;6214;48.012;7.862;2023-02-01T02:04:24;16.30;;;4.28;;
12302;SDS011;6214;48.012;7.862;2023-02-01T02:09:23;15.80;;;3.60;;
12302;SDS011;6214;48.012;7.862;2023-02-01T02:11:50;16.00;;;3.45;;
12302;SDS011;6214;48.012;7.862;2023-02-01T02:14:17;15.65;;;3.58;;
12302;SDS011;6214;48.012;7.862;2023-02-01T02:23:03;15.38;;;3.67;;
12302;SDS011;6214;48.012;7.862;2023-02-01T02:48:10;15.43;;;3.38;;
12302;SDS011;6214;48.012;7.862;2023-02-01T02:50:46;16.00;;;3.80;;
12302;SDS011;6214;48.012;7.862;2023-02-01T02:53:57;16.00;;;3.43;;
12302;SDS011;6214;48.012;7.862;2023-02-01T02:56:47;15.10;;;3.20;;
12302;SDS011;6214;48.012;7.862;2023-02-01T02:59:33;16.42;;;3.30;;
12302;SDS011;6214;48.012;7.862;2023-02-01T03:02:20;16.10;;;3.80;;
12302;SDS011;6214;48.012;7.862;2023-02-01T03:05:07;15.25;;;3.45;;
12302;SDS011;6214;48.012;7.862;2023-02-01T03:12:49;16.20;;;3.60;;
12302;SDS011;6214;48.012;7.862;2023-02-01T03:15:24;15.70;;;3.70;;
12302;SDS011;6214;48.012;7.862;2023-02-01T03:17:58;15.77;;;3.22;;
12302;SDS011;6214;48.012;7.862;2023-02-01T03:20:29;15.60;;;3.63;;
12302;SDS011;6214;48.012;7.862;2023-02-01T03:22:58;16.50;;;3.50;;
12302;SDS011;6214;48.012;7.862;2023-02-01T03:25:27;16.70;;;4.00;;
12302;SDS011;6214;48.012;7.862;2023-02-01T03:27:57;16.15;;;3.80;;
12302;SDS011;6214;48.012;7.862;2023-02-01T03:30:36;15.90;;;3.60;;
12302;SDS011;6214;48.012;7.862;2023-02-01T03:33:13;15.30;;;3.20;;
12302;SDS011;6214;48.012;7.862;2023-02-01T03:35:50;16.00;;;3.40;;
12302;SDS011;6214;48.012;7.862;2023-02-01T03:46:33;17.47;;;4.20;;
12302;SDS011;6214;48.012;7.862;2023-02-01T03:49:08;16.27;;;3.78;;
12302;SDS011;6214;48.012;7.862;2023-02-01T03:51:38;17.20;;;4.40;;
12302;SDS011;6214;48.012;7.862;2023-02-01T03:54:07;16.92;;;4.00;;
12302;SDS011;6214;48.012;7.862;2023-02-01T03:56:38;18.35;;;4.70;;
12302;SDS011;6214;48.012;7.862;2023-02-01T03:59:10;17.20;;;3.83;;
12302;SDS011;6214;48.012;7.862;2023-02-01T04:01:38;15.77;;;4.30;;
12302;SDS011;6214;48.012;7.862;2023-02-01T04:04:05;17.17;;;4.53;;
12302;SDS011;6214;48.012;7.862;2023-02-01T04:06:32;16.38;;;4.32;;
12302;SDS011;6214;48.012;7.862;2023-02-01T04:08:59;16.75;;;4.50;;
12302;SDS011;6214;48.012;7.862;2023-02-01T04:11:26;16.60;;;4.20;;
12302;SDS011;6214;48.012;7.862;2023-02-01T04:13:55;17.05;;;4.55;;
12302;SDS011;6214;48.012;7.862;2023-02-01T04:16:22;16.90;;;4.53;;
12302;SDS011;6214;48.012;7.862;2023-02-01T04:18:49;17.00;;;4.85;;
12302;SDS011;6214;48.012;7.862;2023-02-01T04:21:16;16.73;;;3.78;;
12302;SDS011;6214;48.012;7.862;2023-02-01T04:23:42;16.63;;;4.47;;
12302;SDS011;6214;48.012;7.862;2023-02-01T04:26:09;16.80;;;4.70;;
12302;SDS011;6214;48.012;7.862;2023-02-01T04:28:36;16.80;;;4.67;;
12302;SDS011;6214;48.012;7.862;2023-02-01T04:31:03;17.63;;;4.55;;
12302;SDS011;6214;48.012;7.862;2023-02-01T04:33:30;16.60;;;4.10;;
12302;SDS011;6214;48.012;7.862;2023-02-01T04:35:58;16.97;;;4.97;;
12302;SDS011;6214;48.012;7.862;2023-02-01T04:38:25;16.63;;;4.40;;
12302;SDS011;6214;48.012;7.862;2023-02-01T04:40:53;17.55;;;5.13;;
12302;SDS011;6214;48.012;7.862;2023-02-01T04:43:20;19.50;;;5.20;;
12302;SDS011;6214;48.012;7.862;2023-02-01T04:45:47;17.35;;;4.70;;
12302;SDS011;6214;48.012;7.862;2023-02-01T04:48:16;16.40;;;4.80;;
12302;SDS011;6214;48.012;7.862;2023-02-01T04:50:50;16.67;;;4.40;;
12302;SDS011;6214;48.012;7.862;2023-02-01T04:53:17;16.17;;;4.10;;
12302;SDS011;6214;48.012;7.862;2023-02-01T04:55:44;16.35;;;4.00;;
12302;SDS011;6214;48.012;7.862;2023-02-01T04:58:14;17.87;;;4.30;;
12302;SDS011;6214;48.012;7.862;2023-02-01T05:00:41;15.75;;;3.90;;
12302;SDS011;6214;48.012;7.862;2023-02-01T05:03:08;16.60;;;3.90;;
12302;SDS011;6214;48.012;7.862;2023-02-01T05:05:35;16.27;;;4.20;;
12302;SDS011;6214;48.012;7.862;2023-02-01T05:08:02;16.30;;;3.78;;
12302;SDS011;6214;48.012;7.862;2023-02-01T05:10:29;15.93;;;3.60;;
12302;SDS011;6214;48.012;7.862;2023-02-01T05:12:56;15.73;;;3.60;;
12302;SDS011;6214;48.012;7.862;2023-02-01T05:15:41;16.30;;;3.70;;
12302;SDS011;6214;48.012;7.862;2023-02-01T05:18:08;15.68;;;3.83;;
12302;SDS011;6214;48.012;7.862;2023-02-01T05:20:35;16.13;;;3.70;;
12302;SDS011;6214;48.012;7.862;2023-02-01T05:23:02;16.20;;;3.10;;
12302;SDS011;6214;48.012;7.862;2023-02-01T05:25:29;15.70;;;3.57;;
12302;SDS011;6214;48.012;7.862;2023-02-01T05:27:56;16.30;;;3.50;;
12302;SDS011;6214;48.012;7.862;2023-02-01T05:30:23;16.23;;;3.33;;
12302;SDS011;6214;48.012;7.862;2023-02-01T05:32:53;15.88;;;3.30;;
12302;SDS011;6214;48.012;7.862;2023-02-01T05:35:20;18.08;;;3.50;;
12302;SDS011;6214;48.012;7.862;2023-02-01T05:37:47;16.88;;;3.50;;
12302;SDS011;6214;48.012;7.862;2023-02-01T05:40:14;16.23;;;3.75;;
12302;SDS011;6214;48.012;7.862;2023-02-01T05:42:41;15.75;;;3.45;;
12302;SDS011;6214;48.012;7.862;2023-02-01T05:45:08;16.73;;;3.70;;
12302;SDS011;6214;48.012;7.862;2023-02-01T05:47:35;16.40;;;3.90;;
12302;SDS011;6214;48.012;7.862;2023-02-01T05:50:03;16.30;;;3.75;;
12302;SDS011;6214;48.012;7.862;2023-02-01T05:52:30;17.08;;;4.10;;
12302;SDS011;6214;48.012;7.862;2023-02-01T05:54:58;15.75;;;3.40;;
12302;SDS011;6214;48.012;7.862;2023-02-01T05:57:25;15.82;;;3.40;;
12302;SDS011;6214;48.012;7.862;2023-02-01T05:59:52;15.60;;;3.70;;
12302;SDS011;6214;48.012;7.862;2023-02-01T06:02:19;16.50;;;3.60;;
12302;SDS011;6214;48.012;7.862;2023-02-01T06:04:46;16.00;;;3.67;;
12302;SDS011;6214;48.012;7.862;2023-02-01T06:07:13;17.50;;;3.90;;
12302;SDS011;6214;48.012;7.862;2023-02-01T06:09:40;16.60;;;3.75;;
12302;SDS011;6214;48.012;7.862;2023-02-01T06:12:07;16.60;;;3.50;;
12302;SDS011;6214;48.012;7.862;2023-02-01T06:14:34;18.47;;;4.17;;
12302;SDS011;6214;48.012;7.862;2023-02-01T06:17:01;15.48;;;3.10;;
12302;SDS011;6214;48.012;7.862;2023-02-01T06:19:29;16.10;;;3.40;;
12302;SDS011;6214;48.012;7.862;2023-02-01T06:21:56;15.38;;;2.90;;
12302;SDS011;6214;48.012;7.862;2023-02-01T06:24:23;15.27;;;3.17;;
12302;SDS011;6214;48.012;7.862;2023-02-01T06:26:50;15.73;;;3.38;;
12302;SDS011;6214;48.012;7.862;2023-02-01T06:29:17;17.70;;;3.33;;
12302;SDS011;6214;48.012;7.862;2023-02-01T06:31:44;17.00;;;3.27;;
12302;SDS011;6214;48.012;7.862;2023-02-01T06:34:11;15.65;;;2.97;;
12302;SDS011;6214;48.012;7.862;2023-02-01T06:36:38;16.20;;;2.90;;
12302;SDS011;6214;48.012;7.862;2023-02-01T06:39:05;14.97;;;2.63;;
12302;SDS011;6214;48.012;7.862;2023-02-01T06:41:32;15.13;;;2.92;;
12302;SDS011;6214;48.012;7.862;2023-02-01T06:44:00;15.30;;;3.08;;
12302;SDS011;6214;48.012;7.862;2023-02-01T06:46:27;15.73;;;2.67;;
12302;SDS011;6214;48.012;7.862;2023-02-01T06:48:54;15.50;;;2.83;;
12302;SDS011;6214;48.012;7.862;2023-02-01T06:51:23;14.50;;;2.60;;
12302;SDS011;6214;48.012;7.862;2023-02-01T06:53:52;14.20;;;2.20;;
12302;SDS011;6214;48.012;7.862;2023-02-01T06:56:19;14.70;;;2.40;;
12302;SDS011;6214;48.012;7.862;2023-02-01T06:58:47;15.82;;;2.33;;
12302;SDS011;6214;48.012;7.862;2023-02-01T07:01:15;14.95;;;2.47;;
12302;SDS011;6214;48.012;7.862;2023-02-01T07:03:42;14.15;;;2.05;;
12302;SDS011;6214;48.012;7.862;2023-02-01T07:06:12;14.77;;;2.15;;
12302;SDS011;6214;48.012;7.862;2023-02-01T07:08:39;14.90;;;2.30;;
12302;SDS011;6214;48.012;7.862;2023-02-01T07:11:07;14.80;;;2.45;;
12302;SDS011;6214;48.012;7.862;2023-02-01T07:13:36;15.05;;;2.50;;
12302;SDS011;6214;48.012;7.862;2023-02-01T07:16:05;14.63;;;2.40;;
12302;SDS011;6214;48.012;7.862;2023-02-01T07:18:33;13.60;;;1.80;;
12302;SDS011;6214;48.012;7.862;2023-02-01T07:21:00;14.50;;;2.20;;
12302;SDS011;6214;48.012;7.862;2023-02-01T07:23:27;14.27;;;2.00;;
12302;SDS011;6214;48.012;7.862;2023-02-01T07:25:55;14.75;;;2.10;;
12302;SDS011;6214;48.012;7.862;2023-02-01T07:28:27;14.52;;;2.38;;
12302;SDS011;6214;48.012;7.862;2023-02-01T07:31:01;14.50;;;2.08;;
12302;SDS011;6214;48.012;7.862;2023-02-01T07:33:29;15.10;;;2.22;;
12302;SDS011;6214;48.012;7.862;2023-02-01T07:35:56;15.02;;;2.30;;
12302;SDS011;6214;48.012;7.862;2023-02-01T07:38:23;14.73;;;2.20;;
12302;SDS011;6214;48.012;7.862;2023-02-01T07:40:50;15.45;;;2.25;;
12302;SDS011;6214;48.012;7.862;2023-02-01T07:43:17;16.00;;;2.50;;
12302;SDS011;6214;48.012;7.862;2023-02-01T07:45:49;15.00;;;2.65;;
12302;SDS011;6214;48.012;7.862;2023-02-01T07:48:18;14.57;;;2.63;;
12302;SDS011;6214;48.012;7.862;2023-02-01T07:50:46;15.60;;;2.30;;
12302;SDS011;6214;48.012;7.862;2023-02-01T07:53:13;14.50;;;2.30;;
12302;SDS011;6214;48.012;7.862;2023-02-01T07:55:41;14.90;;;2.60;;
12302;SDS011;6214;48.012;7.862;2023-02-01T07:58:07;15.05;;;3.05;;
12302;SDS011;6214;48.012;7.862;2023-02-01T08:00:34;15.23;;;2.70;;
12302;SDS011;6214;48.012;7.862;2023-02-01T08:03:20;14.90;;;2.80;;
12302;SDS011;6214;48.012;7.862;2023-02-01T08:05:47;15.23;;;2.60;;
12302;SDS011;6214;48.012;7.862;2023-02-01T08:08:14;14.63;;;2.60;;
12302;SDS011;6214;48.012;7.862;2023-02-01T08:10:41;14.82;;;2.80;;
12302;SDS011;6214;48.012;7.862;2023-02-01T08:13:08;14.80;;;2.20;;
12302;SDS011;6214;48.012;7.862;2023-02-01T08:15:35;15.48;;;2.70;;
12302;SDS011;6214;48.012;7.862;2023-02-01T08:18:02;16.17;;;2.65;;
12302;SDS011;6214;48.012;7.862;2023-02-01T08:20:30;15.20;;;2.72;;
12302;SDS011;6214;48.012;7.862;2023-02-01T08:22:57;15.18;;;2.60;;
12302;SDS011;6214;48.012;7.862;2023-02-01T08:25:24;14.57;;;2.40;;
12302;SDS011;6214;48.012;7.862;2023-02-01T08:27:51;14.65;;;2.53;;
12302;SDS011;6214;48.012;7.862;2023-02-01T08:30:19;14.07;;;2.10;;
12302;SDS011;6214;48.012;7.862;2023-02-01T08:32:47;16.05;;;3.10;;
12302;SDS011;6214;48.012;7.862;2023-02-01T08:35:14;14.75;;;2.60;;
12302;SDS011;6214;48.012;7.862;2023-02-01T08:37:41;16.30;;;2.60;;
12302;SDS011;6214;48.012;7.862;2023-02-01T08:40:08;14.15;;;2.20;;
12302;SDS011;6214;48.012;7.862;2023-02-01T08:42:36;14.43;;;2.20;;
12302;SDS011;6214;48.012;7.862;2023-02-01T08:45:19;15.10;;;2.50;;
12302;SDS011;6214;48.012;7.862;2023-02-01T08:47:54;14.40;;;2.00;;
12302;SDS011;6214;48.012;7.862;2023-02-01T08:50:22;14.23;;;1.90;;
12302;SDS011;6214;48.012;7.862;2023-02-01T08:52:51;13.85;;;1.88;;
12302;SDS011;6214;48.012;7.862;2023-02-01T08:55:19;14.77;;;2.05;;
12302;SDS011;6214;48.012;7.862;2023-02-01T08:57:46;14.25;;;2.15;;
12302;SDS011;6214;48.012;7.862;2023-02-01T09:00:15;14.88;;;2.20;;
12302;SDS011;6214;48.012;7.862;2023-02-01T09:02:43;15.07;;;1.90;;
12302;SDS011;6214;48.012;7.862;2023-02-01T09:05:10;14.27;;;2.20;;
12302;SDS011;6214;48.012;7.862;2023-02-01T09:07:37;14.77;;;2.40;;
12302;SDS011;6214;48.012;7.862;2023-02-01T09:10:04;14.20;;;2.20;;
12302;SDS011;6214;48.012;7.862;2023-02-01T09:12:32;14.30;;;2.20;;
12302;SDS011;6214;48.012;7.862;2023-02-01T09:15:00;15.27;;;2.22;;
12302;SDS011;6214;48.012;7.862;2023-02-01T09:17:28;13.90;;;2.10;;
12302;SDS011;6214;48.012;7.862;2023-02-01T09:19:56;14.55;;;1.90;;
12302;SDS011;6214;48.012;7.862;2023-02-01T09:22:23;13.90;;;1.73;;
12302;SDS011;6214;48.012;7.862;2023-02-01T09:24:51;13.95;;;1.80;;
12302;SDS011;6214;48.012;7.862;2023-02-01T09:27:20;14.65;;;2.00;;
12302;SDS011;6214;48.012;7.862;2023-02-01T09:29:47;15.15;;;2.50;;
12302;SDS011;6214;48.012;7.862;2023-02-01T09:32:19;14.50;;;2.50;;
12302;SDS011;6214;48.012;7.862;2023-02-01T09:34:51;15.30;;;2.40;;
12302;SDS011;6214;48.012;7.862;2023-02-01T09:37:19;15.25;;;2.55;;
12302;SDS011;6214;48.012;7.862;2023-02-01T09:39:46;18.75;;;4.60;;
12302;SDS011;6214;48.012;7.862;2023-02-01T09:45:30;14.70;;;2.80;;
12302;SDS011;6214;48.012;7.862;2023-02-01T09:48:10;18.58;;;5.18;;
12302;SDS011;6214;48.012;7.862;2023-02-01T09:50:47;15.80;;;3.40;;
12302;SDS011;6214;48.012;7.862;2023-02-01T09:53:35;16.33;;;2.90;;
12302;SDS011;6214;48.012;7.862;2023-02-01T09:56:07;16.73;;;2.80;;
12302;SDS011;6214;48.012;7.862;2023-02-01T10:01:19;17.65;;;3.10;;
12302;SDS011;6214;48.012;7.862;2023-02-01T10:03:49;15.35;;;2.88;;
12302;SDS011;6214;48.012;7.862;2023-02-01T10:23:35;15.30;;;3.30;;
12302;SDS011;6214;48.012;7.862;2023-02-01T10:26:27;16.85;;;3.60;;
12302;SDS011;6214;48.012;7.862;2023-02-01T10:29:02;18.10;;;3.20;;
12302;SDS011;6214;48.012;7.862;2023-02-01T10:31:35;16.13;;;3.63;;
12302;SDS011;6214;48.012;7.862;2023-02-01T10:34:11;15.73;;;3.10;;
12302;SDS011;6214;48.012;7.862;2023-02-01T10:39:19;16.20;;;3.15;;
12302;SDS011;6214;48.012;7.862;2023-02-01T10:41:46;16.37;;;3.60;;
12302;SDS011;6214;48.012;7.862;2023-02-01T10:44:15;17.88;;;3.90;;
12302;SDS011;6214;48.012;7.862;2023-02-01T10:46:46;15.40;;;3.30;;
12302;SDS011;6214;48.012;7.862;2023-02-01T10:49:15;16.33;;;3.47;;
12302;SDS011;6214;48.012;7.862;2023-02-01T10:51:47;16.33;;;3.40;;
12302;SDS011;6214;48.012;7.862;2023-02-01T10:54:35;17.00;;;3.37;;
12302;SDS011;6214;48.012;7.862;2023-02-01T10:57:08;16.23;;;3.10;;
12302;SDS011;6214;48.012;7.862;2023-02-01T10:59:37;17.20;;;3.60;;
12302;SDS011;6214;48.012;7.862;2023-02-01T11:05:00;18.13;;;3.60;;
12302;SDS011;6214;48.012;7.862;2023-02-01T11:07:35;16.53;;;2.80;;
12302;SDS011;6214;48.012;7.862;2023-02-01T11:10:03;17.50;;;3.50;;
12302;SDS011;6214;48.012;7.862;2023-02-01T11:12:31;16.47;;;3.40;;
12302;SDS011;6214;48.012;7.862;2023-02-01T11:18:07;16.60;;;3.30;;
12302;SDS011;6214;48.012;7.862;2023-02-01T11:21:00;17.30;;;3.70;;
12302;SDS011;6214;48.012;7.862;2023-02-01T11:23:29;16.65;;;3.60;;
12302;SDS011;6214;48.012;7.862;2023-02-01T11:26:00;18.05;;;3.75;;
12302;SDS011;6214;48.012;7.862;2023-02-01T11:28:37;17.48;;;3.20;;
12302;SDS011;6214;48.012;7.862;2023-02-01T11:31:11;19.35;;;3.20;;
12302;SDS011;6214;48.012;7.862;2023-02-01T11:33:43;17.83;;;3.13;;
12302;SDS011;6214;48.012;7.862;2023-02-01T11:36:21;17.00;;;3.22;;
12302;SDS011;6214;48.012;7.862;2023-02-01T11:38:54;17.67;;;3.40;;
12302;SDS011;6214;48.012;7.862;2023-02-01T11:42:00;17.67;;;3.40;;
12302;SDS011;6214;48.012;7.862;2023-02-01T11:44:37;17.40;;;3.60;;
12302;SDS011;6214;48.012;7.862;2023-02-01T11:49:55;17.23;;;3.57;;
12302;SDS011;6214;48.012;7.862;2023-02-01T11:55:17;17.20;;;3.40;;
12302;SDS011;6214;48.012;7.862;2023-02-01T12:00:31;16.95;;;3.47;;
12302;SDS011;6214;48.012;7.862;2023-02-01T12:16:47;18.73;;;3.70;;
12302;SDS011;6214;48.012;7.862;2023-02-01T12:22:28;18.40;;;3.10;;
12302;SDS011;6214;48.012;7.862;2023-02-01T12:30:46;18.90;;;3.90;;
12302;SDS011;6214;48.012;7.862;2023-02-01T12:33:52;17.88;;;3.80;;
12302;SDS011;6214;48.012;7.862;2023-02-01T12:39:24;19.20;;;3.90;;
12302;SDS011;6214;48.012;7.862;2023-02-01T12:42:21;19.73;;;4.00;;
12302;SDS011;6214;48.012;7.862;2023-02-01T12:44:58;17.60;;;3.60;;
12302;SDS011;6214;48.012;7.862;2023-02-01T12:47:44;17.42;;;3.60;;
12302;SDS011;6214;48.012;7.862;2023-02-01T12:50:24;20.23;;;4.10;;
12302;SDS011;6214;48.012;7.862;2023-02-01T12:53:12;17.98;;;3.50;;
12302;SDS011;6214;48.012;7.862;2023-02-01T12:55:48;17.90;;;3.60;;
12302;SDS011;6214;48.012;7.862;2023-02-01T12:58:20;20.03;;;4.00;;
12302;SDS011;6214;48.012;7.862;2023-02-01T13:01:36;19.45;;;4.25;;
12302;SDS011;6214;48.012;7.862;2023-02-01T13:07:06;19.25;;;4.00;;
12302;SDS011;6214;48.012;7.862;2023-02-01T13:09:52;18.67;;;4.20;;
12302;SDS011;6214;48.012;7.862;2023-02-01T13:12:33;19.67;;;3.80;;
12302;SDS011;6214;48.012;7.862;2023-02-01T13:15:05;17.27;;;3.30;;
12302;SDS011;6214;48.012;7.862;2023-02-01T13:17:45;18.70;;;3.40;;
12302;SDS011;6214;48.012;7.862;2023-02-01T13:23:11;18.27;;;3.40;;
12302;SDS011;6214;48.012;7.862;2023-02-01T13:25:50;19.30;;;3.85;;
12302;SDS011;6214;48.012;7.862;2023-02-01T13:45:17;18.67;;;3.55;;
12302;SDS011;6214;48.012;7.862;2023-02-01T13:47:49;19.45;;;3.75;;
12302;SDS011;6214;48.012;7.862;2023-02-01T13:50:37;20.23;;;4.47;;
12302;SDS011;6214;48.012;7.862;2023-02-01T13:55:40;20.77;;;3.92;;
12302;SDS011;6214;48.012;7.862;2023-02-01T13:58:17;19.47;;;3.27;;
12302;SDS011;6214;48.012;7.862;2023-02-01T14:00:45;19.13;;;3.50;;
12302;SDS011;6214;48.012;7.862;2023-02-01T14:03:14;19.40;;;3.22;;
12302;SDS011;6214;48.012;7.862;2023-02-01T14:08:14;20.50;;;4.03;;
12302;SDS011;6214;48.012;7.862;2023-02-01T14:10:49;19.50;;;3.40;;
12302;SDS011;6214;48.012;7.862;2023-02-01T14:13:35;18.83;;;3.40;;
12302;SDS011;6214;48.012;7.862;2023-02-01T14:23:55;20.65;;;4.00;;
12302;SDS011;6214;48.012;7.862;2023-02-01T14:26:26;20.58;;;3.90;;
12302;SDS011;6214;48.012;7.862;2023-02-01T14:32:00;20.23;;;3.97;;
12302;SDS011;6214;48.012;7.862;2023-02-01T14:34:40;20.73;;;5.38;;
12302;SDS011;6214;48.012;7.862;2023-02-01T14:44:51;19.10;;;3.97;;
12302;SDS011;6214;48.012;7.862;2023-02-01T14:47:26;19.50;;;4.10;;
12302;SDS011;6214;48.012;7.862;2023-02-01T14:49:56;20.35;;;4.30;;
12302;SDS011;6214;48.012;7.862;2023-02-01T14:52:37;19.80;;;4.00;;
12302;SDS011;6214;48.012;7.862;2023-02-01T14:55:31;19.67;;;4.00;;
12302;SDS011;6214;48.012;7.862;2023-02-01T15:01:15;21.13;;;4.00;;
12302;SDS011;6214;48.012;7.862;2023-02-01T15:04:00;18.92;;;4.00;;
12302;SDS011;6214;48.012;7.862;2023-02-01T15:06:57;19.40;;;3.85;;
12302;SDS011;6214;48.012;7.862;2023-02-01T15:12:03;19.80;;;3.88;;
12302;SDS011;6214;48.012;7.862;2023-02-01T15:17:31;19.53;;;3.53;;
12302;SDS011;6214;48.012;7.862;2023-02-01T15:20:12;19.75;;;4.20;;
12302;SDS011;6214;48.012;7.862;2023-02-01T15:25:24;18.90;;;3.30;;
12302;SDS011;6214;48.012;7.862;2023-02-01T15:27:53;21.67;;;4.00;;
12302;SDS011;6214;48.012;7.862;2023-02-01T15:30:25;19.55;;;4.40;;
12302;SDS011;6214;48.012;7.862;2023-02-01T15:36:07;20.30;;;4.40;;
12302;SDS011;6214;48.012;7.862;2023-02-01T15:38:41;20.42;;;3.90;;
12302;SDS011;6214;48.012;7.862;2023-02-01T15:41:19;21.60;;;4.70;;
12302;SDS011;6214;48.012;7.862;2023-02-01T15:46:15;20.48;;;3.90;;
12302;SDS011;6214;48.012;7.862;2023-02-01T15:48:48;19.45;;;4.30;;
12302;SDS011;6214;48.012;7.862;2023-02-01T15:51:20;22.55;;;5.03;;
12302;SDS011;6214;48.012;7.862;2023-02-01T15:53:54;24.13;;;8.18;;
12302;SDS011;6214;48.012;7.862;2023-02-01T15:56:24;21.37;;;5.50;;
12302;SDS011;6214;48.012;7.862;2023-02-01T15:58:55;18.52;;;4.40;;
12302;SDS011;6214;48.012;7.862;2023-02-01T16:01:24;21.20;;;4.10;;
12302;SDS011;6214;48.012;7.862;2023-02-01T16:04:10;23.27;;;5.68;;
12302;SDS011;6214;48.012;7.862;2023-02-01T16:06:57;20.73;;;5.00;;
12302;SDS011;6214;48.012;7.862;2023-02-01T16:09:38;19.30;;;3.90;;
12302;SDS011;6214;48.012;7.862;2023-02-01T16:14:55;18.57;;;3.57;;
12302;SDS011;6214;48.012;7.862;2023-02-01T16:17:22;19.67;;;3.92;;
12302;SDS011;6214;48.012;7.862;2023-02-01T16:19:49;21.35;;;3.90;;
12302;SDS011;6214;48.012;7.862;2023-02-01T16:22:16;19.13;;;3.57;;
12302;SDS011;6214;48.012;7.862;2023-02-01T16:24:43;20.30;;;4.60;;
12302;SDS011;6214;48.012;7.862;2023-02-01T16:27:10;19.40;;;4.07;;
12302;SDS011;6214;48.012;7.862;2023-02-01T16:29:37;19.88;;;4.00;;
12302;SDS011;6214;48.012;7.862;2023-02-01T16:32:06;21.40;;;4.57;;
12302;SDS011;6214;48.012;7.862;2023-02-01T16:34:38;19.17;;;4.07;;
12302;SDS011;6214;48.012;7.862;2023-02-01T16:37:08;19.03;;;3.90;;
12302;SDS011;6214;48.012;7.862;2023-02-01T16:39:40;19.48;;;3.50;;
12302;SDS011;6214;48.012;7.862;2023-02-01T16:42:14;20.05;;;4.30;;
12302;SDS011;6214;48.012;7.862;2023-02-01T16:44:42;20.80;;;3.90;;
12302;SDS011;6214;48.012;7.862;2023-02-01T16:47:16;19.83;;;3.80;;
12302;SDS011;6214;48.012;7.862;2023-02-01T16:49:47;19.48;;;3.50;;
12302;SDS011;6214;48.012;7.862;2023-02-01T16:52:16;20.40;;;3.72;;
12302;SDS011;6214;48.012;7.862;2023-02-01T16:54:45;19.73;;;3.50;;
12302;SDS011;6214;48.012;7.862;2023-02-01T16:57:14;20.33;;;3.70;;
12302;SDS011;6214;48.012;7.862;2023-02-01T16:59:43;19.17;;;3.70;;
12302;SDS011;6214;48.012;7.862;2023-02-01T17:02:14;19.05;;;4.05;;
12302;SDS011;6214;48.012;7.862;2023-02-01T17:04:43;20.05;;;4.20;;
12302;SDS011;6214;48.012;7.862;2023-02-01T17:07:16;21.67;;;5.28;;
12302;SDS011;6214;48.012;7.862;2023-02-01T17:09:45;21.60;;;5.10;;
12302;SDS011;6214;48.012;7.862;2023-02-01T17:12:24;21.07;;;5.00;;
12302;SDS011;6214;48.012;7.862;2023-02-01T17:14:53;20.52;;;4.10;;
12302;SDS011;6214;48.012;7.862;2023-02-01T17:17:20;21.33;;;4.20;;
12302;SDS011;6214;48.012;7.862;2023-02-01T17:20:03;20.73;;;4.00;;
12302;SDS011;6214;48.012;7.862;2023-02-01T17:22:32;18.95;;;3.45;;
12302;SDS011;6214;48.012;7.862;2023-02-01T17:24:59;17.60;;;3.90;;
12302;SDS011;6214;48.012;7.862;2023-02-01T17:27:26;20.17;;;4.22;;
12302;SDS011;6214;48.012;7.862;2023-02-01T17:29:55;19.25;;;3.75;;
12302;SDS011;6214;48.012;7.862;2023-02-01T17:32:22;21.80;;;4.00;;
12302;SDS011;6214;48.012;7.862;2023-02-01T17:34:51;20.05;;;3.70;;
12302;SDS011;6214;48.012;7.862;2023-02-01T17:37:28;19.50;;;3.70;;
12302;SDS011;6214;48.012;7.862;2023-02-01T17:39:57;19.67;;;3.67;;
12302;SDS011;6214;48.012;7.862;2023-02-01T17:42:24;17.70;;;4.00;;
12302;SDS011;6214;48.012;7.862;2023-02-01T17:44:59;19.80;;;4.00;;
12302;SDS011;6214;48.012;7.862;2023-02-01T17:47:27;19.65;;;3.97;;
12302;SDS011;6214;48.012;7.862;2023-02-01T17:49:55;19.73;;;3.92;;
12302;SDS011;6214;48.012;7.862;2023-02-01T17:52:23;21.73;;;5.47;;
12302;SDS011;6214;48.012;7.862;2023-02-01T17:54:51;19.55;;;4.28;;
12302;SDS011;6214;48.012;7.862;2023-02-01T17:57:19;18.15;;;3.65;;
12302;SDS011;6214;48.012;7.862;2023-02-01T17:59:46;17.65;;;3.35;;
12302;SDS011;6214;48.012;7.862;2023-02-01T18:02:16;19.17;;;4.03;;
12302;SDS011;6214;48.012;7.862;2023-02-01T18:04:51;18.80;;;3.90;;
12302;SDS011;6214;48.012;7.862;2023-02-01T18:07:18;18.00;;;3.60;;
12302;SDS011;6214;48.012;7.862;2023-02-01T18:09:45;21.50;;;4.25;;